createdAt,value
2018-05-15T00:02:21.335Z,99.90
2018-05-15T00:04:49.554Z,99.90
2018-05-15T00:07:17.012Z,99.90
2018-05-15T00:09:44.461Z,99.90
2018-05-15T00:12:11.909Z,99.90
2018-05-15T00:14:39.364Z,99.90
2018-05-15T00:17:06.814Z,99.90
2018-05-15T00:19:34.267Z,99.90
2018-05-15T00:22:01.858Z,99.90
2018-05-15T00:24:29.322Z,99.90
2018-05-15T00:26:56.768Z,99.90
2018-05-15T00:29:24.227Z,99.90
2018-05-15T00:31:51.671Z,99.90
2018-05-15T00:34:19.105Z,99.90
2018-05-15T00:36:46.554Z,99.90
2018-05-15T00:39:13.994Z,99.90
2018-05-15T00:41:42.206Z,99.90
2018-05-15T00:44:09.644Z,99.90
2018-05-15T00:46:37.102Z,99.90
2018-05-15T00:49:04.547Z,99.90
2018-05-15T00:51:32.758Z,99.90
2018-05-15T00:54:00.202Z,99.90
2018-05-15T00:56:27.651Z,99.90
2018-05-15T00:58:55.094Z,99.90
2018-05-15T01:01:22.550Z,99.90
2018-05-15T01:03:50.751Z,99.90
2018-05-15T01:06:18.195Z,99.90
2018-05-15T01:08:45.633Z,99.90
2018-05-15T01:11:13.852Z,99.90
2018-05-15T01:13:41.301Z,99.90
2018-05-15T01:16:08.747Z,99.90
2018-05-15T01:18:36.196Z,99.90
2018-05-15T01:21:03.641Z,99.90
2018-05-15T01:23:31.091Z,99.90
2018-05-15T01:25:59.308Z,99.90
2018-05-15T01:28:26.760Z,99.90
2018-05-15T01:30:54.211Z,99.90
2018-05-15T01:33:21.672Z,99.90
2018-05-15T01:35:49.106Z,99.90
2018-05-15T01:38:16.554Z,99.90
2018-05-15T01:40:44.754Z,99.90
2018-05-15T01:43:12.310Z,99.90
2018-05-15T01:45:39.663Z,99.90
2018-05-15T01:48:07.109Z,99.90
2018-05-15T01:50:34.555Z,99.90
2018-05-15T01:53:02.005Z,99.90
2018-05-15T01:55:30.206Z,99.90
2018-05-15T01:57:57.664Z,99.90
2018-05-15T02:00:25.108Z,99.90
2018-05-15T02:02:52.550Z,99.90
2018-05-15T02:05:19.993Z,99.90
2018-05-15T02:07:48.209Z,99.90
2018-05-15T02:10:15.651Z,99.90
2018-05-15T02:12:43.104Z,99.90
2018-05-15T02:15:10.546Z,99.90
2018-05-15T02:17:38.785Z,99.90
2018-05-15T02:20:06.217Z,99.90
2018-05-15T02:22:33.666Z,99.90
2018-05-15T02:25:01.114Z,99.90
2018-05-15T02:27:28.554Z,99.90
2018-05-15T02:29:56.001Z,99.90
2018-05-15T02:32:24.210Z,99.90
2018-05-15T02:34:51.669Z,99.90
2018-05-15T02:37:19.100Z,99.90
2018-05-15T02:39:47.313Z,99.90
2018-05-15T02:42:14.767Z,99.90
2018-05-15T02:44:42.225Z,99.90
2018-05-15T02:47:09.661Z,99.90
2018-05-15T02:49:37.145Z,99.90
2018-05-15T02:52:05.350Z,99.90
2018-05-15T02:54:32.803Z,99.90
2018-05-15T02:57:00.258Z,99.90
2018-05-15T02:59:27.711Z,99.90
2018-05-15T03:01:55.145Z,99.90
2018-05-15T03:04:22.594Z,99.90
2018-05-15T03:06:50.035Z,99.90
2018-05-15T03:09:17.477Z,99.90
2018-05-15T03:11:44.944Z,99.90
2018-05-15T03:14:13.126Z,99.90
2018-05-15T03:16:40.582Z,99.90
2018-05-15T03:19:08.010Z,99.90
2018-05-15T03:21:36.231Z,99.90
2018-05-15T03:24:03.673Z,99.90
2018-05-15T03:26:31.120Z,99.90
2018-05-15T03:28:58.557Z,99.90
2018-05-15T03:31:26.011Z,99.90
2018-05-15T03:33:53.458Z,99.90
2018-05-15T03:36:21.677Z,99.90
2018-05-15T03:38:49.119Z,99.90
2018-05-15T03:41:16.564Z,99.90
2018-05-15T03:43:44.006Z,99.90
2018-05-15T03:46:12.219Z,99.90
2018-05-15T03:48:39.663Z,99.90
2018-05-15T03:51:07.110Z,99.90
2018-05-15T03:53:34.566Z,99.90
2018-05-15T03:56:02.001Z,99.90
2018-05-15T03:58:30.219Z,99.90
2018-05-15T04:01:09.495Z,99.90
2018-05-15T04:03:48.981Z,99.90
2018-05-15T04:06:28.328Z,99.90
2018-05-15T04:08:55.779Z,99.90
2018-05-15T04:11:23.227Z,99.90
2018-05-15T04:13:50.671Z,99.90
2018-05-15T04:16:18.123Z,99.90
2018-05-15T04:18:46.344Z,99.90
2018-05-15T04:21:13.783Z,99.90
2018-05-15T04:23:41.231Z,99.90
2018-05-15T04:26:08.670Z,99.90
2018-05-15T04:28:36.119Z,99.90
2018-05-15T04:31:04.327Z,99.90
2018-05-15T04:33:31.783Z,99.90
2018-05-15T04:35:59.213Z,99.90
2018-05-15T04:38:26.683Z,99.90
2018-05-15T04:40:54.126Z,99.90
2018-05-15T04:43:21.573Z,99.90
2018-05-15T04:45:49.778Z,99.90
2018-05-15T04:48:17.240Z,99.90
2018-05-15T04:50:44.677Z,99.90
2018-05-15T04:53:12.126Z,99.90
2018-05-15T04:55:39.620Z,99.90
2018-05-15T04:58:07.787Z,99.90
2018-05-15T05:00:35.231Z,99.90
2018-05-15T05:03:02.671Z,99.90
2018-05-15T05:05:30.120Z,99.90
2018-05-15T05:07:58.329Z,99.90
2018-05-15T05:10:25.769Z,99.90
2018-05-15T05:12:53.234Z,99.90
2018-05-15T05:15:20.671Z,99.90
2018-05-15T05:17:48.112Z,99.90
2018-05-15T05:20:16.327Z,99.90
2018-05-15T05:22:43.772Z,99.90
2018-05-15T05:25:11.226Z,99.90
2018-05-15T05:27:38.671Z,99.90
2018-05-15T05:30:06.122Z,99.90
2018-05-15T05:32:34.326Z,99.90
2018-05-15T05:35:01.780Z,99.90
2018-05-15T05:37:29.211Z,99.90
2018-05-15T05:39:56.655Z,99.90
2018-05-15T05:42:24.880Z,99.90
2018-05-15T05:44:52.311Z,99.90
2018-05-15T05:47:19.757Z,99.90
2018-05-15T05:49:47.975Z,99.90
2018-05-15T05:52:15.412Z,99.90
2018-05-15T05:54:42.854Z,99.90
2018-05-15T05:57:10.312Z,99.90
2018-05-15T05:59:37.746Z,99.90
2018-05-15T06:02:05.954Z,99.90
2018-05-15T06:04:33.389Z,99.90
2018-05-15T06:07:00.834Z,99.90
2018-05-15T06:09:29.041Z,99.90
2018-05-15T06:11:56.489Z,99.90
2018-05-15T06:14:23.966Z,99.90
2018-05-15T06:16:51.390Z,99.90
2018-05-15T06:19:18.836Z,99.90
2018-05-15T06:21:47.051Z,99.90
2018-05-15T06:24:14.486Z,99.90
2018-05-15T06:26:41.943Z,99.90
2018-05-15T06:29:09.378Z,99.90
2018-05-15T06:31:37.585Z,99.90
2018-05-15T06:34:05.027Z,99.90
2018-05-15T06:36:32.467Z,99.90
2018-05-15T06:39:00.673Z,99.90
2018-05-15T06:41:28.113Z,99.90
2018-05-15T06:43:55.558Z,99.90
2018-05-15T06:46:23.785Z,99.90
2018-05-15T06:48:51.217Z,99.90
2018-05-15T06:51:18.727Z,99.90
2018-05-15T06:53:46.098Z,99.90
2018-05-15T06:56:14.307Z,99.90
2018-05-15T06:58:41.746Z,99.90
2018-05-15T07:01:09.192Z,99.90
2018-05-15T07:03:37.406Z,99.90
2018-05-15T07:06:04.852Z,99.90
2018-05-15T07:08:32.293Z,99.90
2018-05-15T07:10:59.733Z,99.90
2018-05-15T07:13:27.943Z,99.90
2018-05-15T07:15:55.445Z,99.90
2018-05-15T07:18:22.826Z,99.90
2018-05-15T07:20:50.326Z,99.90
2018-05-15T07:23:17.770Z,99.90
2018-05-15T07:25:45.207Z,99.90
2018-05-15T07:28:12.647Z,99.90
2018-05-15T07:30:40.858Z,99.90
2018-05-15T07:33:08.359Z,99.90
2018-05-15T07:35:35.777Z,99.90
2018-05-15T07:38:03.226Z,99.90
2018-05-15T07:40:30.708Z,99.90
2018-05-15T07:42:58.147Z,99.90
2018-05-15T07:45:25.602Z,99.90
2018-05-15T07:47:53.029Z,99.90
2018-05-15T07:50:20.478Z,99.90
2018-05-15T07:52:48.674Z,99.90
2018-05-15T07:55:16.133Z,99.90
2018-05-15T07:57:43.578Z,99.90
2018-05-15T08:00:11.018Z,99.90
2018-05-15T08:02:39.221Z,99.90
2018-05-15T08:05:06.662Z,99.90
2018-05-15T08:07:34.101Z,99.90
2018-05-15T08:10:02.322Z,99.90
2018-05-15T08:12:29.751Z,99.90
2018-05-15T08:14:57.200Z,99.90
2018-05-15T08:17:24.639Z,99.90
2018-05-15T08:19:52.850Z,99.90
2018-05-15T08:22:20.402Z,99.80
2018-05-15T08:24:47.746Z,98.70
2018-05-15T08:27:15.190Z,98.70
2018-05-15T08:29:43.402Z,98.60
2018-05-15T08:32:10.842Z,98.60
2018-05-15T08:34:38.283Z,99.00
2018-05-15T08:37:06.494Z,97.70
2018-05-15T08:39:33.931Z,97.70
2018-05-15T08:42:01.808Z,97.70
2018-05-15T08:44:29.244Z,98.00
2018-05-15T08:46:56.689Z,97.90
2018-05-15T08:49:24.894Z,98.10
2018-05-15T08:51:52.343Z,98.10
2018-05-15T08:54:19.784Z,97.00
2018-05-15T08:56:47.991Z,97.50
2018-05-15T08:59:15.430Z,97.50
2018-05-15T09:01:42.878Z,96.90
2018-05-15T09:04:10.312Z,96.70
2018-05-15T09:06:38.522Z,97.30
2018-05-15T09:09:05.979Z,97.20
2018-05-15T09:11:33.418Z,96.80
2018-05-15T09:14:00.863Z,97.10
2018-05-15T09:16:29.070Z,97.00
2018-05-15T09:18:56.516Z,96.90
2018-05-15T09:21:23.962Z,97.20
2018-05-15T09:23:51.417Z,96.10
2018-05-15T09:26:19.613Z,96.10
2018-05-15T09:28:47.069Z,96.10
2018-05-15T09:31:14.510Z,96.40
2018-05-15T09:33:41.953Z,96.20
2018-05-15T09:36:10.161Z,96.10
2018-05-15T09:38:37.599Z,96.10
2018-05-15T09:41:05.042Z,95.30
2018-05-15T09:43:58.057Z,95.30
2018-05-15T09:46:25.486Z,94.50
2018-05-15T09:48:52.927Z,93.90
2018-05-15T09:51:20.362Z,94.50
2018-05-15T09:53:48.571Z,94.70
2018-05-15T09:56:16.006Z,94.70
2018-05-15T09:58:43.451Z,94.90
2018-05-15T10:01:11.654Z,93.90
2018-05-15T10:03:39.098Z,93.90
2018-05-15T10:06:06.534Z,94.20
2018-05-15T10:08:34.742Z,92.90
2018-05-15T10:11:02.194Z,92.70
2018-05-15T10:13:29.635Z,91.90
2018-05-15T10:15:57.082Z,91.40
2018-05-15T10:18:25.286Z,92.60
2018-05-15T10:20:52.722Z,92.60
2018-05-15T10:23:20.162Z,92.30
2018-05-15T10:25:48.378Z,91.20
2018-05-15T10:28:15.812Z,91.20
2018-05-15T10:30:43.259Z,92.00
2018-05-15T10:33:11.454Z,91.50
2018-05-15T10:35:38.904Z,91.50
2018-05-15T10:38:06.334Z,91.20
2018-05-15T10:40:34.542Z,89.50
2018-05-15T10:43:01.981Z,89.40
2018-05-15T10:45:29.439Z,90.70
2018-05-15T10:47:56.871Z,89.40
2018-05-15T10:50:25.084Z,90.20
2018-05-15T10:52:52.522Z,89.80
2018-05-15T10:55:19.971Z,86.00
2018-05-15T10:57:48.170Z,85.00
2018-05-15T11:00:15.623Z,84.70
2018-05-15T11:02:43.055Z,84.10
2018-05-15T11:05:11.267Z,80.90
2018-05-15T11:07:38.706Z,81.20
2018-05-15T11:10:06.153Z,79.90
2018-05-15T11:12:34.353Z,78.40
2018-05-15T11:15:01.798Z,78.30
2018-05-15T11:17:29.247Z,79.40
2018-05-15T11:20:08.614Z,78.30
2018-05-15T11:22:48.115Z,79.70
2018-05-15T11:25:15.576Z,81.90
2018-05-15T11:27:43.006Z,82.80
2018-05-15T11:30:11.210Z,77.20
2018-05-15T11:32:38.672Z,77.20
2018-05-15T11:35:06.098Z,76.90
2018-05-15T11:37:34.313Z,76.40
2018-05-15T11:40:01.746Z,76.30
2018-05-15T11:42:29.194Z,75.60
2018-05-15T11:44:57.402Z,79.30
2018-05-15T11:47:24.937Z,79.30
2018-05-15T11:49:53.154Z,79.90
2018-05-15T11:52:21.305Z,82.10
2018-05-15T11:54:47.938Z,82.10
2018-05-15T11:57:15.373Z,83.20
2018-05-15T11:59:42.833Z,84.70
2018-05-15T12:02:11.028Z,84.10
2018-05-15T12:04:38.465Z,83.80
2018-05-15T12:07:05.895Z,83.30
2018-05-15T12:09:34.113Z,81.50
2018-05-15T12:12:02.091Z,81.50
2018-05-15T12:14:29.542Z,82.90
2018-05-15T12:16:56.987Z,83.40
2018-05-15T12:19:24.431Z,83.70
2018-05-15T12:21:51.872Z,82.20
2018-05-15T12:24:20.081Z,79.00
2018-05-15T12:26:47.516Z,79.00
2018-05-15T12:29:15.723Z,79.00
2018-05-15T12:31:43.171Z,79.10
2018-05-15T12:34:10.628Z,77.70
2018-05-15T12:36:38.062Z,77.80
2018-05-15T12:39:05.497Z,77.90
2018-05-15T12:41:33.756Z,82.90
2018-05-15T12:44:01.144Z,82.80
2018-05-15T12:46:29.352Z,81.70
2018-05-15T12:48:56.809Z,81.80
2018-05-15T12:51:24.256Z,76.60
2018-05-15T12:53:51.685Z,79.60
2018-05-15T12:56:19.898Z,76.70
2018-05-15T12:58:47.342Z,76.80
2018-05-15T13:01:14.792Z,75.30
2018-05-15T13:03:42.227Z,73.30
2018-05-15T13:06:10.435Z,74.80
2018-05-15T13:08:37.881Z,74.70
2018-05-15T13:11:05.332Z,74.40
2018-05-15T13:13:32.774Z,70.20
2018-05-15T13:16:00.994Z,71.70
2018-05-15T13:18:28.465Z,71.40
2018-05-15T13:20:55.866Z,71.80
2018-05-15T13:23:23.304Z,73.60
2018-05-15T13:25:51.518Z,67.20
2018-05-15T13:28:18.958Z,67.20
2018-05-15T13:30:46.390Z,68.10
2018-05-15T13:33:14.601Z,69.20
2018-05-15T13:35:42.052Z,69.20
2018-05-15T13:38:09.483Z,67.50
2018-05-15T13:40:37.683Z,72.00
2018-05-15T13:43:05.129Z,72.20
2018-05-15T13:45:32.569Z,73.30
2018-05-15T13:48:00.783Z,68.00
2018-05-15T13:50:28.246Z,67.70
2018-05-15T13:52:55.665Z,68.30
2018-05-15T13:55:23.102Z,67.10
2018-05-15T13:57:51.319Z,66.20
2018-05-15T14:00:18.755Z,66.20
2018-05-15T14:02:46.217Z,67.90
2018-05-15T14:05:13.650Z,66.20
2018-05-15T14:07:41.862Z,67.20
2018-05-15T14:10:09.305Z,67.60
2018-05-15T14:12:36.779Z,65.70
2018-05-15T14:15:04.965Z,65.60
2018-05-15T14:17:32.402Z,65.60
2018-05-15T14:19:59.843Z,65.30
2018-05-15T14:22:27.278Z,66.40
2018-05-15T14:24:55.490Z,68.60
2018-05-15T14:27:22.930Z,68.70
2018-05-15T14:29:50.374Z,70.50
2018-05-15T14:32:18.585Z,71.60
2018-05-15T14:34:46.030Z,71.60
2018-05-15T14:37:13.475Z,73.30
2018-05-15T14:39:41.682Z,76.20
2018-05-15T14:42:20.971Z,76.20
2018-05-15T14:44:49.183Z,79.00
2018-05-15T14:47:16.615Z,78.90
2018-05-15T14:49:44.062Z,78.10
2018-05-15T14:52:12.262Z,78.80
2018-05-15T14:54:39.707Z,78.80
2018-05-15T14:57:07.143Z,78.80
2018-05-15T14:59:35.374Z,78.30
2018-05-15T15:02:02.817Z,78.10
2018-05-15T15:04:30.250Z,77.30
2018-05-15T15:06:57.697Z,77.30
2018-05-15T15:09:25.894Z,76.80
2018-05-15T15:11:53.352Z,76.70
2018-05-15T15:14:20.805Z,76.60
2018-05-15T15:16:48.261Z,76.40
2018-05-15T15:19:15.724Z,78.20
2018-05-15T15:21:43.145Z,78.30
2018-05-15T15:24:11.354Z,81.20
2018-05-15T15:26:38.798Z,81.40
2018-05-15T15:29:06.243Z,83.90
2018-05-15T15:31:34.441Z,84.60
2018-05-15T15:34:04.736Z,84.50
2018-05-15T15:36:32.950Z,84.40
2018-05-15T15:39:00.389Z,84.20
2018-05-15T15:41:27.827Z,84.70
2018-05-15T15:43:55.270Z,84.40
2018-05-15T15:46:23.483Z,85.30
2018-05-15T15:48:50.922Z,85.20
2018-05-15T15:51:18.380Z,84.80
2018-05-15T15:53:45.814Z,87.00
2018-05-15T15:56:14.014Z,91.20
2018-05-15T15:58:41.479Z,91.20
2018-05-15T16:01:08.932Z,92.80
2018-05-15T16:03:36.391Z,93.80
2018-05-15T16:06:03.880Z,95.60
2018-05-15T16:08:31.355Z,98.00
2018-05-15T16:10:58.815Z,99.90
2018-05-15T16:13:26.283Z,99.90
2018-05-15T16:15:54.520Z,99.90
2018-05-15T16:18:21.994Z,99.90
2018-05-15T16:20:49.497Z,99.90
2018-05-15T16:23:16.919Z,99.90
2018-05-15T16:25:44.379Z,99.90
2018-05-15T16:28:12.645Z,99.90
2018-05-15T16:30:40.100Z,99.90
2018-05-15T16:33:07.556Z,99.90
2018-05-15T16:35:35.025Z,99.90
2018-05-15T16:38:02.484Z,99.90
2018-05-15T16:40:30.739Z,99.90
2018-05-15T16:42:58.203Z,99.90
2018-05-15T16:45:25.671Z,99.90
2018-05-15T16:47:53.908Z,99.90
2018-05-15T16:50:22.143Z,99.90
2018-05-15T16:52:49.598Z,99.90
2018-05-15T16:55:17.095Z,99.90
2018-05-15T16:57:44.559Z,99.90
2018-05-15T17:00:12.040Z,99.90
2018-05-15T17:02:39.517Z,99.90
2018-05-15T17:05:07.757Z,99.90
2018-05-15T17:07:35.212Z,99.90
2018-05-15T17:10:02.678Z,99.90
2018-05-15T17:12:30.142Z,99.90
2018-05-15T17:14:57.676Z,99.90
2018-05-15T17:17:25.151Z,99.90
2018-05-15T17:19:52.619Z,99.90
2018-05-15T17:22:20.104Z,99.90
2018-05-15T17:24:48.340Z,99.90
2018-05-15T17:27:15.821Z,99.90
2018-05-15T17:29:43.579Z,99.90
2018-05-15T17:32:11.071Z,99.90
2018-05-15T17:34:39.297Z,99.90
2018-05-15T17:37:08.284Z,99.90
2018-05-15T17:39:35.745Z,99.90
2018-05-15T17:42:03.227Z,99.90
2018-05-15T17:44:31.448Z,99.90
2018-05-15T17:46:58.925Z,99.90
2018-05-15T17:49:26.412Z,99.90
2018-05-15T17:51:53.872Z,99.90
2018-05-15T17:54:21.331Z,99.90
2018-05-15T17:56:49.579Z,99.90
2018-05-15T17:59:17.799Z,99.90
2018-05-15T18:01:46.061Z,99.90
2018-05-15T18:04:13.521Z,99.90
2018-05-15T18:06:41.012Z,99.90
2018-05-15T18:09:08.483Z,99.90
2018-05-15T18:11:35.956Z,99.90
2018-05-15T18:14:03.432Z,99.90
2018-05-15T18:16:30.913Z,99.90
2018-05-15T18:18:58.396Z,99.90
2018-05-15T18:21:25.938Z,99.90
2018-05-15T18:23:53.331Z,99.90
2018-05-15T18:26:20.801Z,99.90
2018-05-15T18:28:48.271Z,99.90
2018-05-15T18:31:15.767Z,99.90
2018-05-15T18:33:44.001Z,99.90
2018-05-15T18:36:11.476Z,99.90
2018-05-15T18:38:38.948Z,99.90
2018-05-15T18:41:07.167Z,99.90
2018-05-15T18:43:34.651Z,99.90
2018-05-15T18:46:02.138Z,99.90
2018-05-15T18:48:30.368Z,99.90
2018-05-15T18:50:57.922Z,99.90
2018-05-15T18:53:25.325Z,99.90
2018-05-15T18:55:53.552Z,99.90
2018-05-15T18:58:21.023Z,99.90
2018-05-15T19:00:48.486Z,99.90
2018-05-15T19:03:15.958Z,99.90
2018-05-15T19:05:43.423Z,99.90
2018-05-15T19:08:10.882Z,99.90
2018-05-15T19:10:38.358Z,99.90
2018-05-15T19:13:05.859Z,99.90
2018-05-15T19:15:33.332Z,99.90
2018-05-15T19:18:00.824Z,99.90
2018-05-15T19:20:29.063Z,99.90
2018-05-15T19:22:56.528Z,99.90
2018-05-15T19:25:24.025Z,99.90
2018-05-15T19:27:52.252Z,99.90
2018-05-15T19:30:19.719Z,99.90
2018-05-15T19:32:53.744Z,99.90
2018-05-15T19:35:26.964Z,99.90
2018-05-15T19:37:54.428Z,99.90
2018-05-15T19:40:21.892Z,99.90
2018-05-15T19:42:49.353Z,99.90
2018-05-15T19:45:16.824Z,99.90
2018-05-15T19:47:44.296Z,99.90
2018-05-15T19:50:11.776Z,99.90
2018-05-15T19:52:39.244Z,99.90
2018-05-15T19:55:07.484Z,99.90
2018-05-15T19:57:34.959Z,99.90
2018-05-15T20:00:02.433Z,99.90
2018-05-15T20:02:30.662Z,99.90
2018-05-15T20:04:58.127Z,99.90
2018-05-15T20:07:25.600Z,99.90
2018-05-15T20:09:53.063Z,99.90
2018-05-15T20:12:20.536Z,99.90
2018-05-15T20:14:48.759Z,99.90
2018-05-15T20:17:16.237Z,99.90
2018-05-15T20:19:43.704Z,99.90
2018-05-15T20:22:11.176Z,99.90
2018-05-15T20:24:38.650Z,99.90
2018-05-15T20:27:06.884Z,99.90
2018-05-15T20:29:34.365Z,99.90
2018-05-15T20:32:02.281Z,99.90
2018-05-15T20:34:29.749Z,99.90
2018-05-15T20:36:57.227Z,99.90
2018-05-15T20:39:24.689Z,99.90
2018-05-15T20:41:52.156Z,99.90
2018-05-15T20:44:19.616Z,99.90
2018-05-15T20:46:47.068Z,99.90
2018-05-15T20:49:14.577Z,99.90
2018-05-15T20:51:42.031Z,99.90
2018-05-15T20:54:09.499Z,99.90
2018-05-15T20:56:36.957Z,99.90
2018-05-15T20:59:04.423Z,99.90
2018-05-15T21:01:31.893Z,99.90
2018-05-15T21:03:59.360Z,99.90
2018-05-15T21:06:26.827Z,99.90
2018-05-15T21:08:54.291Z,99.90
2018-05-15T21:11:21.760Z,99.90
2018-05-15T21:13:49.994Z,99.90
2018-05-15T21:16:17.456Z,99.90
2018-05-15T21:18:44.932Z,99.90
2018-05-15T21:21:12.395Z,99.90
2018-05-15T21:23:39.862Z,99.90
2018-05-15T21:26:08.083Z,99.90
2018-05-15T21:28:35.554Z,99.90
2018-05-15T21:31:03.033Z,99.90
2018-05-15T21:33:30.498Z,99.90
2018-05-15T21:35:57.972Z,99.90
2018-05-15T21:38:26.234Z,99.90
2018-05-15T21:40:53.699Z,99.90
2018-05-15T21:43:21.921Z,99.90
2018-05-15T21:45:49.396Z,99.90
2018-05-15T21:48:16.871Z,99.90
2018-05-15T21:50:44.375Z,99.90
2018-05-15T21:53:11.849Z,99.90
2018-05-15T21:55:39.328Z,99.90
2018-05-15T21:58:06.800Z,99.90
2018-05-15T22:00:34.260Z,99.90
2018-05-15T22:03:01.718Z,99.90
2018-05-15T22:05:29.197Z,99.90
2018-05-15T22:07:57.438Z,99.90
2018-05-15T22:10:24.932Z,99.90
2018-05-15T22:13:05.035Z,99.90
2018-05-15T22:15:44.502Z,99.90
2018-05-15T22:18:23.913Z,99.90
2018-05-15T22:21:03.291Z,99.90
2018-05-15T22:23:31.040Z,99.90
2018-05-15T22:25:58.525Z,99.90
2018-05-15T22:28:25.977Z,99.90
2018-05-15T22:30:54.207Z,99.90
2018-05-15T22:33:21.676Z,99.90
2018-05-15T22:35:49.145Z,99.90
2018-05-15T22:38:16.641Z,99.90
2018-05-15T22:40:44.117Z,99.90
2018-05-15T22:43:11.579Z,99.90
2018-05-15T22:45:39.053Z,99.90
2018-05-15T22:48:06.508Z,99.90
2018-05-15T22:50:34.738Z,99.90
2018-05-15T22:53:02.221Z,99.90
2018-05-15T22:55:29.697Z,99.90
2018-05-15T22:57:57.155Z,99.90
2018-05-15T23:00:24.622Z,99.90
2018-05-15T23:02:52.092Z,99.90
2018-05-15T23:05:20.321Z,99.90
2018-05-15T23:07:47.779Z,99.90
2018-05-15T23:10:15.236Z,99.90
2018-05-15T23:12:42.709Z,99.90
2018-05-15T23:15:10.187Z,99.90
2018-05-15T23:17:37.657Z,99.90
2018-05-15T23:20:05.887Z,99.90
2018-05-15T23:22:43.174Z,99.90
2018-05-15T23:25:10.636Z,99.90
2018-05-15T23:27:38.098Z,99.90
2018-05-15T23:30:05.576Z,99.90
2018-05-15T23:32:33.051Z,99.90
2018-05-15T23:35:01.292Z,99.90
2018-05-15T23:37:28.755Z,99.90
2018-05-15T23:39:56.230Z,99.90
2018-05-15T23:42:24.463Z,99.90
2018-05-15T23:44:52.728Z,99.90
2018-05-15T23:47:20.192Z,99.90
2018-05-15T23:49:47.661Z,99.90
2018-05-15T23:52:15.122Z,99.90
2018-05-15T23:54:42.587Z,99.90
2018-05-15T23:57:10.052Z,99.90
2018-05-15T23:59:37.515Z,99.90
